Time;durP1;ratioP1;P1;durP2;ratioP2;P2;SDS_P1;SDS_P2;PMS_P1;PMS_P2;Temp;Humidity;BMP_temperature;BMP_pressure;BME280_temperature;BME280_humidity;BME280_pressure;Samples;Min_cycle;Max_cycle;Signal;HPM_P1;HPM_P2
2023/04/11 00:00:18;;;;;;;2.15;1.30;;;9.40;99.90;;;;;;5086777;28;20421;-64
2023/04/11 00:02:45;;;;;;;2.00;0.90;;;9.30;99.90;;;;;;5085281;28;20433;-64
2023/04/11 00:05:12;;;;;;;2.20;1.20;;;9.30;99.90;;;;;;5076010;28;20538;-64
2023/04/11 00:07:40;;;;;;;2.78;1.10;;;9.30;99.90;;;;;;5084270;28;20422;-64
2023/04/11 00:10:08;;;;;;;2.40;1.20;;;9.40;99.90;;;;;;5088807;28;20448;-64
2023/04/11 00:12:34;;;;;;;1.88;1.02;;;9.40;99.90;;;;;;5074447;28;20501;-64
2023/04/11 00:15:02;;;;;;;2.80;1.10;;;9.40;99.90;;;;;;5079268;28;20431;-64
2023/04/11 00:17:30;;;;;;;2.33;1.00;;;9.40;99.90;;;;;;5077102;28;20559;-64
2023/04/11 00:20:00;;;;;;;2.92;1.52;;;9.40;99.90;;;;;;5080662;28;20512;-64
2023/04/11 00:22:27;;;;;;;3.53;1.35;;;9.40;99.90;;;;;;5074923;28;20841;-64
2023/04/11 00:24:55;;;;;;;2.97;1.30;;;9.40;99.90;;;;;;5080223;28;20817;-64
2023/04/11 00:27:22;;;;;;;4.22;1.40;;;9.50;99.90;;;;;;5085833;28;20417;-64
2023/04/11 00:29:48;;;;;;;3.57;1.30;;;9.50;99.90;;;;;;5079057;28;20417;-64
2023/04/11 00:32:15;;;;;;;3.55;1.20;;;9.50;99.90;;;;;;5072469;28;20511;-64
2023/04/11 00:34:42;;;;;;;3.08;1.30;;;9.50;99.90;;;;;;5085391;28;20756;-64
2023/04/11 00:37:08;;;;;;;2.92;1.10;;;9.60;99.90;;;;;;5084195;28;20464;-64
2023/04/11 00:39:37;;;;;;;4.05;1.42;;;9.50;99.90;;;;;;5079351;28;20415;-64
2023/04/11 00:42:07;;;;;;;3.90;1.50;;;9.60;99.90;;;;;;5077797;28;20733;-64
2023/04/11 00:44:35;;;;;;;4.18;1.40;;;9.60;99.90;;;;;;5085774;28;20892;-64
2023/04/11 00:47:02;;;;;;;5.47;1.85;;;9.60;99.90;;;;;;5085424;28;20486;-64
2023/04/11 00:49:30;;;;;;;4.72;1.73;;;9.60;99.90;;;;;;5087036;28;20433;-64
2023/04/11 00:51:58;;;;;;;4.00;1.70;;;9.60;99.90;;;;;;5084272;28;20752;-64
2023/04/11 00:54:28;;;;;;;4.20;1.60;;;9.70;99.90;;;;;;5084983;28;20425;-64
2023/04/11 00:56:57;;;;;;;5.15;1.67;;;9.70;99.90;;;;;;5085317;28;20425;-64
2023/04/11 00:59:26;;;;;;;4.15;1.55;;;9.70;99.90;;;;;;5086473;28;20418;-63
2023/04/11 01:01:53;;;;;;;7.28;2.10;;;9.80;99.90;;;;;;5085772;28;20410;-64
2023/04/11 01:04:20;;;;;;;5.10;1.70;;;9.80;99.90;;;;;;5083344;28;20417;-64
2023/04/11 01:06:51;;;;;;;4.50;2.08;;;9.80;99.90;;;;;;5085660;28;20433;-64
2023/04/11 01:09:19;;;;;;;5.20;1.60;;;9.90;99.90;;;;;;5086577;28;20421;-64
2023/04/11 01:11:46;;;;;;;5.28;1.40;;;9.90;99.90;;;;;;5086478;28;20480;-64
2023/04/11 01:14:13;;;;;;;5.75;2.13;;;9.90;99.90;;;;;;5086261;28;20436;-64
2023/04/11 01:16:42;;;;;;;6.40;2.40;;;9.90;99.90;;;;;;5087035;28;20438;-65
2023/04/11 01:19:09;;;;;;;5.90;2.20;;;9.80;99.90;;;;;;5087394;28;20443;-64
2023/04/11 01:21:36;;;;;;;5.28;2.15;;;9.80;99.90;;;;;;5080873;28;20578;-66
2023/04/11 01:24:05;;;;;;;4.70;2.20;;;9.80;99.90;;;;;;5085260;28;20511;-64
2023/04/11 01:26:32;;;;;;;5.60;2.30;;;9.90;99.90;;;;;;5088717;28;20417;-64
2023/04/11 01:28:59;;;;;;;5.63;2.53;;;9.80;99.90;;;;;;5090876;28;20413;-64
2023/04/11 01:31:26;;;;;;;4.45;2.65;;;9.80;99.90;;;;;;5090006;28;20425;-64
2023/04/11 01:33:52;;;;;;;6.68;2.20;;;9.80;99.90;;;;;;5088648;28;20433;-64
2023/04/11 01:36:19;;;;;;;9.43;2.60;;;9.80;99.90;;;;;;5090520;28;20772;-64
2023/04/11 01:38:46;;;;;;;7.60;2.50;;;9.70;99.90;;;;;;5086532;28;20417;-64
2023/04/11 01:41:17;;;;;;;7.43;2.50;;;9.70;99.90;;;;;;5085836;28;20444;-64
2023/04/11 01:43:44;;;;;;;7.15;2.60;;;9.70;99.90;;;;;;5085445;28;20510;-64
2023/04/11 01:46:12;;;;;;;5.93;2.25;;;9.60;99.90;;;;;;5085006;28;20426;-64
2023/04/11 01:48:39;;;;;;;5.93;2.30;;;9.70;99.90;;;;;;5086107;28;20436;-63
2023/04/11 01:51:07;;;;;;;7.30;2.53;;;9.70;99.90;;;;;;5085844;28;20441;-67
2023/04/11 01:53:33;;;;;;;7.32;2.53;;;9.70;99.90;;;;;;5086420;28;20422;-64
2023/04/11 01:56:00;;;;;;;8.27;2.60;;;9.60;99.90;;;;;;5087295;28;20430;-64
2023/04/11 01:58:28;;;;;;;8.18;2.60;;;9.60;99.90;;;;;;5087427;28;20430;-64
2023/04/11 02:00:55;;;;;;;8.37;2.80;;;9.60;99.90;;;;;;5087459;28;20433;-64
2023/04/11 02:03:21;;;;;;;7.82;3.05;;;9.60;99.90;;;;;;5085404;28;20508;-64
2023/04/11 02:05:48;;;;;;;8.60;3.00;;;9.60;99.90;;;;;;5086656;28;20418;-64
2023/04/11 02:08:15;;;;;;;10.80;3.67;;;9.60;99.90;;;;;;5087660;28;20452;-65
2023/04/11 02:10:42;;;;;;;7.85;2.80;;;9.50;99.90;;;;;;5087897;28;20480;-64
2023/04/11 02:13:08;;;;;;;10.00;3.30;;;9.50;99.90;;;;;;5086544;28;20883;-64
2023/04/11 02:15:36;;;;;;;7.13;3.03;;;9.60;99.90;;;;;;5080932;28;20536;-64
2023/04/11 02:18:03;;;;;;;9.13;3.30;;;9.50;99.90;;;;;;5100709;28;20853;-63
2023/04/11 02:20:30;;;;;;;8.60;3.08;;;9.60;99.70;;;;;;5084527;28;20501;-64
2023/04/11 02:22:57;;;;;;;9.43;3.40;;;9.60;99.50;;;;;;5082754;28;20895;-64
2023/04/11 02:25:24;;;;;;;9.40;2.72;;;9.50;99.40;;;;;;5085560;28;20892;-64
2023/04/11 02:27:50;;;;;;;8.07;3.03;;;9.50;99.80;;;;;;5085917;28;20433;-64
2023/04/11 02:30:17;;;;;;;9.85;2.90;;;9.40;99.50;;;;;;5086328;28;20841;-63
2023/04/11 02:32:48;;;;;;;9.45;3.20;;;9.40;99.50;;;;;;5086481;28;20420;-64
2023/04/11 02:35:15;;;;;;;8.77;3.33;;;9.30;99.60;;;;;;5085545;28;20811;-64
2023/04/11 02:37:42;;;;;;;9.63;3.00;;;9.30;99.90;;;;;;5084320;28;20475;-64
2023/04/11 02:40:09;;;;;;;10.98;3.20;;;9.30;99.60;;;;;;5086039;28;20808;-64
2023/04/11 02:42:38;;;;;;;9.85;3.10;;;9.40;99.10;;;;;;5084511;28;20417;-63
2023/04/11 02:45:06;;;;;;;11.53;3.30;;;9.40;98.90;;;;;;5085634;28;20937;-64
2023/04/11 02:47:33;;;;;;;10.88;3.10;;;9.40;98.80;;;;;;5086837;28;20405;-64
2023/04/11 02:50:01;;;;;;;11.93;3.60;;;9.50;98.90;;;;;;5085498;28;20654;-64
2023/04/11 02:52:27;;;;;;;8.55;3.53;;;9.50;98.80;;;;;;5084381;28;21147;-64
2023/04/11 02:54:54;;;;;;;9.65;3.17;;;9.50;98.50;;;;;;5088241;28;20503;-64
2023/04/11 02:57:21;;;;;;;11.23;3.50;;;9.50;98.40;;;;;;5090170;28;20899;-64
2023/04/11 02:59:48;;;;;;;9.43;3.25;;;9.50;98.40;;;;;;5089933;28;20409;-64
2023/04/11 03:02:14;;;;;;;11.73;3.42;;;9.50;98.80;;;;;;5089658;28;20421;-64
2023/04/11 03:04:41;;;;;;;10.35;3.30;;;9.40;99.00;;;;;;5083258;28;20508;-64
2023/04/11 03:07:11;;;;;;;10.10;3.10;;;9.40;98.80;;;;;;5088345;28;20430;-64
2023/04/11 03:09:38;;;;;;;11.88;3.60;;;9.30;99.20;;;;;;5089770;28;20769;-65
2023/04/11 03:12:05;;;;;;;9.95;3.65;;;9.30;99.00;;;;;;5090025;28;20914;-64
2023/04/11 03:14:32;;;;;;;13.90;3.90;;;9.20;98.80;;;;;;5090239;28;20414;-64
2023/04/11 03:16:59;;;;;;;11.40;4.20;;;9.20;99.30;;;;;;5089562;28;20502;-63
2023/04/11 03:19:25;;;;;;;10.68;3.50;;;9.10;99.60;;;;;;5090575;28;21031;-64
2023/04/11 03:21:52;;;;;;;15.98;3.78;;;9.00;99.60;;;;;;5088925;28;20436;-64
2023/04/11 03:24:21;;;;;;;14.85;4.18;;;9.00;99.20;;;;;;5087250;28;20441;-64
2023/04/11 03:26:47;;;;;;;11.13;3.63;;;9.00;99.40;;;;;;5089998;28;20770;-64
2023/04/11 03:29:15;;;;;;;13.57;3.75;;;9.00;99.40;;;;;;5089900;28;20417;-64
2023/04/11 03:31:42;;;;;;;9.57;3.40;;;8.90;99.30;;;;;;5090120;28;20957;-64
2023/04/11 03:34:08;;;;;;;10.68;3.40;;;8.90;99.10;;;;;;5087402;28;20429;-64
2023/04/11 03:36:35;;;;;;;12.93;4.55;;;8.90;99.10;;;;;;5089847;28;20452;-64
2023/04/11 03:39:02;;;;;;;11.75;3.50;;;8.90;98.70;;;;;;5089705;28;20421;-64
2023/04/11 03:41:30;;;;;;;11.70;3.67;;;8.80;98.60;;;;;;5096154;28;20430;-64
2023/04/11 03:43:57;;;;;;;12.68;3.40;;;8.80;98.60;;;;;;5095716;28;20425;-64
2023/04/11 03:46:24;;;;;;;12.18;3.35;;;8.80;98.30;;;;;;5089897;28;20453;-65
2023/04/11 03:48:50;;;;;;;5.72;3.03;;;8.80;98.40;;;;;;5088235;28;20447;-65
2023/04/11 03:51:17;;;;;;;8.73;2.85;;;8.80;98.30;;;;;;5088220;28;20872;-65
2023/04/11 03:53:44;;;;;;;9.20;3.00;;;8.80;98.30;;;;;;5086595;28;20413;-65
2023/04/11 03:56:11;;;;;;;12.13;3.60;;;8.80;98.50;;;;;;5089355;28;20455;-65
2023/04/11 03:58:39;;;;;;;7.20;3.10;;;8.70;98.40;;;;;;5089599;28;20414;-65
2023/04/11 04:01:06;;;;;;;10.02;3.30;;;8.70;98.50;;;;;;5090522;28;20922;-65
2023/04/11 04:03:33;;;;;;;10.57;4.00;;;8.70;98.40;;;;;;5087759;28;20434;-65
2023/04/11 04:05:59;;;;;;;10.15;3.25;;;8.70;98.40;;;;;;5090253;28;20562;-65
2023/04/11 04:08:26;;;;;;;13.70;4.07;;;8.70;97.90;;;;;;5091936;28;20417;-65
2023/04/11 04:10:53;;;;;;;10.52;3.60;;;8.70;98.10;;;;;;5088298;28;20540;-65
2023/04/11 04:13:19;;;;;;;9.13;3.75;;;8.70;97.90;;;;;;5088424;28;20422;-65
2023/04/11 04:15:50;;;;;;;13.65;3.40;;;8.80;98.00;;;;;;5089762;28;20839;-64
2023/04/11 04:18:16;;;;;;;11.07;4.22;;;8.80;97.70;;;;;;5079034;28;20437;-64
2023/04/11 04:20:43;;;;;;;10.68;3.85;;;8.90;97.80;;;;;;5099939;28;20592;-64
2023/04/11 04:23:13;;;;;;;9.38;3.70;;;8.90;97.90;;;;;;5087895;28;20446;-64
2023/04/11 04:25:40;;;;;;;12.35;4.25;;;8.90;97.50;;;;;;5088329;28;20840;-65
2023/04/11 04:28:08;;;;;;;10.20;3.60;;;8.90;97.70;;;;;;5088734;28;20765;-64
2023/04/11 04:30:37;;;;;;;11.23;3.58;;;8.90;98.30;;;;;;5089309;28;20860;-64
2023/04/11 04:33:10;;;;;;;9.18;2.95;;;8.90;97.70;;;;;;5090426;28;20445;-65
2023/04/11 04:35:37;;;;;;;10.93;4.00;;;9.00;97.60;;;;;;5085999;28;20433;-65
2023/04/11 04:38:07;;;;;;;10.38;3.42;;;8.90;97.50;;;;;;5088322;28;20422;-64
2023/04/11 04:40:38;;;;;;;13.43;3.78;;;8.90;97.50;;;;;;5088788;28;20521;-64
2023/04/11 04:43:07;;;;;;;13.85;3.60;;;8.90;97.60;;;;;;5088885;28;20410;-64
2023/04/11 04:45:34;;;;;;;10.43;3.47;;;8.90;97.50;;;;;;5091151;28;20425;-64
2023/04/11 04:48:02;;;;;;;10.40;3.13;;;8.90;97.10;;;;;;5087687;28;20415;-65
2023/04/11 04:50:30;;;;;;;8.82;3.40;;;8.90;97.20;;;;;;5087841;28;20432;-64
2023/04/11 04:52:57;;;;;;;8.10;3.27;;;8.90;97.20;;;;;;5088266;28;20421;-64
2023/04/11 04:55:24;;;;;;;9.65;3.35;;;8.90;97.40;;;;;;5088925;28;20421;-64
2023/04/11 04:57:51;;;;;;;11.88;3.63;;;8.90;97.30;;;;;;5089581;28;20429;-65
2023/04/11 05:00:18;;;;;;;10.57;3.28;;;8.90;97.10;;;;;;5088881;28;20421;-65
2023/04/11 05:02:46;;;;;;;9.20;3.63;;;8.90;97.20;;;;;;5088520;28;20421;-63
2023/04/11 05:05:14;;;;;;;9.88;3.22;;;8.90;97.10;;;;;;5087628;28;20441;-64
2023/04/11 05:07:44;;;;;;;8.82;3.50;;;8.90;97.00;;;;;;5089280;28;20917;-64
2023/04/11 05:10:11;;;;;;;9.38;3.50;;;8.90;97.20;;;;;;5089314;28;20433;-65
2023/04/11 05:12:37;;;;;;;10.13;3.40;;;8.90;97.30;;;;;;5075971;28;20421;-66
2023/04/11 05:15:10;;;;;;;8.45;3.63;;;8.90;97.20;;;;;;5088979;28;20422;-70
2023/04/11 05:17:37;;;;;;;10.00;3.50;;;9.00;98.30;;;;;;5084677;28;20940;-64
2023/04/11 05:20:05;;;;;;;9.32;3.28;;;9.20;96.80;;;;;;5088728;28;20508;-63
2023/04/11 05:22:32;;;;;;;13.30;3.75;;;9.10;96.50;;;;;;5087729;28;20454;-63
2023/04/11 05:25:01;;;;;;;9.35;3.38;;;9.10;96.60;;;;;;5086257;28;20804;-63
2023/04/11 05:27:28;;;;;;;13.13;4.30;;;9.10;96.70;;;;;;5094195;28;20428;-63
2023/04/11 05:29:54;;;;;;;13.00;3.87;;;9.00;96.70;;;;;;5089809;28;20784;-64
2023/04/11 05:32:21;;;;;;;10.95;4.10;;;9.00;96.90;;;;;;5087127;28;20426;-63
2023/04/11 05:34:52;;;;;;;10.48;3.80;;;9.00;96.90;;;;;;5087221;28;20429;-64
2023/04/11 05:37:19;;;;;;;10.87;3.83;;;8.90;97.30;;;;;;5087802;28;20440;-64
2023/04/11 05:39:46;;;;;;;11.60;3.70;;;8.90;97.30;;;;;;5089959;28;20497;-64
2023/04/11 05:42:16;;;;;;;7.85;3.80;;;8.80;97.40;;;;;;5082574;28;20430;-63
2023/04/11 05:44:43;;;;;;;9.83;3.40;;;8.90;97.20;;;;;;5087211;28;20878;-63
2023/04/11 05:47:10;;;;;;;11.05;4.03;;;9.00;97.40;;;;;;5083464;28;20793;-63
2023/04/11 05:49:37;;;;;;;7.95;3.50;;;9.00;97.30;;;;;;5082646;28;20448;-65
2023/04/11 05:52:04;;;;;;;10.90;4.00;;;9.10;96.80;;;;;;5085200;28;20487;-64
2023/04/11 05:54:34;;;;;;;8.70;3.60;;;9.10;97.10;;;;;;5086661;28;20422;-64
2023/04/11 05:57:02;;;;;;;12.05;4.70;;;9.00;97.00;;;;;;5089462;28;20436;-64
2023/04/11 05:59:31;;;;;;;7.40;3.17;;;9.00;97.00;;;;;;5089689;28;20505;-64
2023/04/11 06:01:58;;;;;;;10.60;4.50;;;9.00;97.20;;;;;;5079208;28;20780;-63
2023/04/11 06:04:24;;;;;;;10.68;3.78;;;9.10;97.30;;;;;;5087163;28;20554;-63
2023/04/11 06:06:53;;;;;;;9.50;3.45;;;9.10;97.00;;;;;;5089903;28;20858;-64
2023/04/11 06:09:20;;;;;;;13.43;4.10;;;9.10;96.70;;;;;;5077389;28;20406;-64
2023/04/11 06:11:47;;;;;;;8.40;3.60;;;9.10;96.70;;;;;;5089226;28;20421;-65
2023/04/11 06:14:14;;;;;;;10.05;4.18;;;9.20;96.70;;;;;;5089704;28;20421;-65
2023/04/11 06:16:42;;;;;;;11.30;4.00;;;9.20;96.50;;;;;;5079901;28;20427;-65
2023/04/11 06:19:08;;;;;;;9.43;3.90;;;9.20;96.60;;;;;;5088961;28;20486;-65
2023/04/11 06:21:35;;;;;;;9.27;3.47;;;9.20;96.10;;;;;;5087770;28;20521;-64
2023/04/11 06:24:04;;;;;;;9.10;3.50;;;9.20;96.00;;;;;;5085960;28;20422;-65
2023/04/11 06:26:31;;;;;;;11.60;4.10;;;9.20;96.10;;;;;;5096876;28;20511;-65
2023/04/11 06:28:58;;;;;;;11.00;3.90;;;9.20;96.10;;;;;;5085992;28;20430;-65
2023/04/11 06:31:25;;;;;;;8.90;3.75;;;9.10;96.00;;;;;;5082853;28;20445;-65
2023/04/11 06:33:54;;;;;;;5.85;3.40;;;9.20;96.20;;;;;;5090488;28;20492;-64
2023/04/11 06:36:21;;;;;;;10.43;3.30;;;9.20;95.50;;;;;;5089059;28;20516;-65
2023/04/11 06:38:48;;;;;;;7.47;3.20;;;9.30;95.50;;;;;;5090380;28;20422;-65
2023/04/11 06:41:15;;;;;;;7.53;3.50;;;9.40;95.00;;;;;;5084161;28;20522;-64
2023/04/11 06:43:41;;;;;;;7.77;2.93;;;9.50;94.30;;;;;;5084843;28;20502;-65
2023/04/11 06:46:09;;;;;;;8.98;3.53;;;9.60;93.80;;;;;;5084714;28;20809;-65
2023/04/11 06:48:35;;;;;;;7.10;2.92;;;9.70;93.30;;;;;;5087731;28;20430;-66
2023/04/11 06:51:04;;;;;;;10.68;3.20;;;9.70;93.00;;;;;;5086227;28;20417;-65
2023/04/11 06:53:31;;;;;;;8.27;3.83;;;9.70;92.90;;;;;;5089061;28;20773;-64
2023/04/11 06:55:59;;;;;;;9.17;3.37;;;9.70;92.50;;;;;;5083321;28;20433;-64
2023/04/11 06:58:26;;;;;;;6.55;3.40;;;9.80;92.40;;;;;;5092677;28;20456;-65
2023/04/11 07:00:52;;;;;;;8.02;2.90;;;9.80;92.00;;;;;;5093894;28;20429;-65
2023/04/11 07:03:19;;;;;;;8.18;3.50;;;9.80;92.50;;;;;;5106388;28;20432;-66
2023/04/11 07:05:46;;;;;;;5.22;3.17;;;9.80;92.00;;;;;;5097272;28;20883;-65
2023/04/11 07:08:15;;;;;;;10.05;3.25;;;9.80;91.50;;;;;;5084055;28;20424;-64
2023/04/11 07:10:41;;;;;;;9.65;3.20;;;9.90;91.10;;;;;;5090781;28;20990;-64
2023/04/11 07:13:08;;;;;;;8.68;2.97;;;10.00;90.30;;;;;;5096373;28;20420;-64
2023/04/11 07:15:35;;;;;;;7.15;3.20;;;10.00;89.20;;;;;;5078378;28;20564;-64
2023/04/11 07:18:02;;;;;;;10.23;3.20;;;10.10;90.00;;;;;;5086235;28;20425;-64
2023/04/11 07:20:29;;;;;;;8.27;3.47;;;10.20;88.60;;;;;;5093618;28;20428;-64
2023/04/11 07:22:56;;;;;;;7.78;3.00;;;10.30;89.90;;;;;;5086091;28;20429;-64
2023/04/11 07:25:29;;;;;;;7.18;3.10;;;10.40;88.00;;;;;;5083748;28;20753;-64
2023/04/11 07:27:56;;;;;;;7.03;2.55;;;10.40;87.00;;;;;;5081419;28;20473;-64
2023/04/11 07:30:23;;;;;;;9.20;2.93;;;10.40;87.90;;;;;;5082358;28;20432;-64
2023/04/11 07:32:50;;;;;;;7.30;2.85;;;10.50;86.10;;;;;;5087715;28;20444;-65
2023/04/11 07:35:16;;;;;;;6.82;2.60;;;10.40;86.30;;;;;;5094659;28;20432;-64
2023/04/11 07:37:44;;;;;;;6.38;2.70;;;10.40;88.00;;;;;;5087596;28;20422;-64
2023/04/11 07:40:13;;;;;;;7.30;2.90;;;10.60;86.20;;;;;;5086389;28;20460;-64
2023/04/11 07:42:41;;;;;;;8.55;2.90;;;10.60;85.60;;;;;;5088251;28;20433;-66
2023/04/11 07:45:08;;;;;;;5.53;2.38;;;10.80;85.00;;;;;;5086066;28;20461;-63
2023/04/11 07:47:35;;;;;;;8.07;2.70;;;10.80;83.10;;;;;;5091074;28;20420;-63
2023/04/11 07:50:02;;;;;;;8.38;2.65;;;10.90;81.50;;;;;;5086543;28;20532;-64
2023/04/11 07:52:29;;;;;;;7.88;2.60;;;10.80;81.00;;;;;;5083426;28;20552;-64
2023/04/11 07:54:56;;;;;;;7.63;3.70;;;10.80;79.90;;;;;;5088475;28;20947;-65
2023/04/11 07:57:23;;;;;;;7.45;2.30;;;10.80;80.30;;;;;;5097726;28;20434;-65
2023/04/11 07:59:51;;;;;;;7.72;2.80;;;10.90;79.20;;;;;;5083161;28;20425;-68
2023/04/11 08:02:17;;;;;;;6.00;2.42;;;11.00;78.20;;;;;;5085675;28;20497;-64
2023/04/11 08:04:45;;;;;;;6.22;2.40;;;11.10;79.60;;;;;;5085033;28;20426;-65
2023/04/11 08:07:11;;;;;;;7.18;2.50;;;11.20;79.60;;;;;;5081606;28;20908;-64
2023/04/11 08:09:38;;;;;;;7.25;2.60;;;11.30;75.50;;;;;;5085197;28;20791;-64
2023/04/11 08:12:05;;;;;;;7.25;2.95;;;11.20;77.10;;;;;;5084581;28;20433;-64
2023/04/11 08:14:32;;;;;;;4.80;2.50;;;11.40;77.60;;;;;;5086288;28;20619;-64
2023/04/11 08:17:00;;;;;;;5.07;2.20;;;11.40;77.70;;;;;;5082898;28;20426;-65
2023/04/11 08:19:27;;;;;;;6.45;2.30;;;11.60;75.70;;;;;;5084282;28;20429;-65
2023/04/11 08:21:54;;;;;;;6.75;2.10;;;11.70;72.70;;;;;;5083448;28;20464;-65
2023/04/11 08:24:21;;;;;;;6.17;2.30;;;11.50;70.60;;;;;;5078582;28;20634;-64
2023/04/11 08:26:47;;;;;;;6.50;2.50;;;11.30;71.00;;;;;;5084270;28;20437;-64
2023/04/11 08:29:14;;;;;;;6.80;2.20;;;11.00;72.90;;;;;;5085445;28;20828;-64
2023/04/11 08:31:43;;;;;;;6.60;2.08;;;10.80;72.60;;;;;;5079884;28;20429;-64
2023/04/11 08:34:11;;;;;;;6.03;2.90;;;10.80;72.80;;;;;;5083410;28;20433;-65
2023/04/11 08:36:38;;;;;;;5.78;2.10;;;10.90;74.30;;;;;;5084472;28;20461;-65
2023/04/11 08:39:05;;;;;;;5.65;2.70;;;11.10;74.40;;;;;;5082489;28;20417;-65
2023/04/11 08:41:33;;;;;;;5.15;2.05;;;11.40;72.00;;;;;;5084218;28;20578;-65
2023/04/11 08:44:00;;;;;;;5.15;2.10;;;11.80;71.60;;;;;;5076955;28;20497;-65
2023/04/11 08:46:28;;;;;;;6.60;2.25;;;12.00;69.00;;;;;;5082839;28;20426;-65
2023/04/11 08:48:55;;;;;;;7.35;2.50;;;12.20;68.80;;;;;;5081667;28;20427;-64
2023/04/11 08:51:25;;;;;;;5.57;2.00;;;12.40;64.80;;;;;;5080804;28;20453;-64
2023/04/11 08:53:53;;;;;;;3.88;1.70;;;12.40;65.20;;;;;;5079612;28;20445;-66
2023/04/11 08:56:20;;;;;;;4.78;2.00;;;12.50;62.60;;;;;;5080841;28;20430;-65
2023/04/11 08:58:47;;;;;;;8.73;1.70;;;12.60;60.20;;;;;;5080976;28;20825;-65
2023/04/11 09:01:30;;;;;;;5.20;2.10;;;12.40;59.90;;;;;;5081637;28;20450;-67
2023/04/11 09:03:58;;;;;;;4.68;1.70;;;12.30;60.30;;;;;;5084822;28;20872;-66
2023/04/11 09:06:29;;;;;;;6.97;2.10;;;12.30;59.50;;;;;;5082003;28;20462;-63
2023/04/11 09:08:56;;;;;;;4.88;2.00;;;12.50;60.50;;;;;;5083542;28;20520;-64
2023/04/11 09:11:24;;;;;;;6.30;2.00;;;12.70;60.30;;;;;;5080581;28;20436;-64
2023/04/11 09:14:06;;;;;;;5.32;1.80;;;12.70;59.30;;;;;;5082458;28;20503;-63
2023/04/11 09:16:33;;;;;;;4.38;2.10;;;12.70;60.00;;;;;;5084068;28;20437;-63
2023/04/11 09:19:00;;;;;;;6.50;2.10;;;13.00;58.90;;;;;;5084160;28;20422;-64
2023/04/11 09:21:28;;;;;;;7.47;1.90;;;13.10;58.60;;;;;;5085089;28;20417;-63
2023/04/11 09:24:13;;;;;;;4.10;1.70;;;13.00;57.20;;;;;;5081919;28;20483;-64
2023/04/11 09:26:40;;;;;;;4.40;2.00;;;12.90;59.20;;;;;;5084781;28;20433;-63
2023/04/11 09:29:06;;;;;;;4.18;1.92;;;13.10;58.60;;;;;;5085383;28;20421;-64
2023/04/11 09:31:40;;;;;;;4.30;1.67;;;13.20;56.60;;;;;;5082010;28;20425;-64
2023/04/11 09:34:07;;;;;;;4.72;2.00;;;13.20;56.00;;;;;;5084195;28;20860;-64
2023/04/11 09:36:36;;;;;;;3.80;1.67;;;13.40;55.90;;;;;;5083541;28;20533;-63
2023/04/11 09:39:16;;;;;;;4.72;1.90;;;13.60;54.60;;;;;;5084181;28;20487;-63
2023/04/11 09:41:43;;;;;;;4.57;1.80;;;13.60;55.70;;;;;;5084777;28;20437;-65
2023/04/11 09:44:10;;;;;;;6.80;1.90;;;13.40;56.20;;;;;;5080024;28;20427;-64
2023/04/11 09:46:37;;;;;;;4.57;1.52;;;13.40;53.30;;;;;;5084331;28;20433;-64
2023/04/11 09:49:03;;;;;;;4.13;1.50;;;13.20;52.70;;;;;;5085444;28;20433;-66
2023/04/11 09:51:31;;;;;;;4.82;1.90;;;13.20;53.40;;;;;;5084192;28;20418;-64
2023/04/11 09:54:02;;;;;;;4.40;1.83;;;13.30;54.70;;;;;;5080709;28;20512;-64
2023/04/11 09:56:32;;;;;;;5.68;1.90;;;13.30;54.50;;;;;;5084383;28;20655;-64
2023/04/11 09:59:00;;;;;;;5.90;2.10;;;13.20;52.90;;;;;;5083097;28;20443;-66
2023/04/11 10:01:27;;;;;;;3.88;1.92;;;13.30;53.20;;;;;;5085041;28;20513;-64
2023/04/11 10:03:55;;;;;;;5.78;1.80;;;13.30;54.50;;;;;;5083532;28;20868;-64
2023/04/11 10:06:32;;;;;;;4.63;1.95;;;13.30;53.70;;;;;;5083985;28;20432;-64
2023/04/11 10:09:07;;;;;;;5.22;1.92;;;13.50;52.40;;;;;;5082875;28;20426;-63
2023/04/11 10:11:34;;;;;;;6.47;2.40;;;13.80;50.20;;;;;;5083500;28;20409;-65
2023/04/11 10:14:00;;;;;;;4.57;2.03;;;14.00;49.40;;;;;;5082797;28;20756;-64
2023/04/11 10:16:31;;;;;;;5.30;2.00;;;14.00;49.10;;;;;;5083349;28;20433;-64
2023/04/11 10:19:25;;;;;;;4.20;1.77;;;13.80;48.90;;;;;;5081932;28;20629;-64
2023/04/11 10:21:52;;;;;;;3.70;1.80;;;13.40;50.10;;;;;;5073519;28;20425;-65
2023/04/11 10:24:21;;;;;;;3.42;2.00;;;13.50;49.90;;;;;;5083009;28;20469;-63
2023/04/11 10:26:50;;;;;;;4.30;1.70;;;13.80;50.40;;;;;;5084123;28;20422;-63
2023/04/11 10:29:49;;;;;;;4.22;1.90;;;14.30;47.40;;;;;;5083375;28;20432;-64
2023/04/11 10:32:21;;;;;;;6.35;2.30;;;14.30;46.70;;;;;;5075470;28;20410;-64
2023/04/11 10:35:22;;;;;;;4.45;1.70;;;14.30;46.00;;;;;;5082028;28;20418;-64
2023/04/11 10:37:49;;;;;;;5.75;2.20;;;14.30;46.30;;;;;;4990868;28;20497;-64
2023/04/11 10:40:19;;;;;;;5.35;2.10;;;14.20;47.00;;;;;;4999605;28;20428;-64
2023/04/11 10:42:47;;;;;;;4.25;1.50;;;14.40;46.10;;;;;;5039736;28;20418;-64
2023/04/11 10:45:15;;;;;;;4.50;1.70;;;14.60;44.80;;;;;;5078111;28;20427;-64
2023/04/11 10:47:41;;;;;;;5.70;1.98;;;14.90;41.10;;;;;;5081791;28;20868;-64
2023/04/11 10:50:33;;;;;;;4.20;1.50;;;14.60;42.00;;;;;;5084325;28;20721;-65
2023/04/11 10:53:01;;;;;;;4.57;1.90;;;14.60;41.60;;;;;;5081227;28;20812;-65
2023/04/11 10:55:41;;;;;;;4.43;1.85;;;14.80;41.90;;;;;;5083498;28;20437;-65
2023/04/11 10:58:08;;;;;;;3.42;1.80;;;14.70;42.60;;;;;;5073572;28;20448;-65
2023/04/11 11:01:23;;;;;;;5.10;2.20;;;14.70;43.20;;;;;;5078748;28;20430;-65
2023/04/11 11:03:58;;;;;;;4.50;2.00;;;14.80;42.60;;;;;;5079170;28;20490;-65
2023/04/11 11:06:25;;;;;;;4.53;1.55;;;14.80;43.10;;;;;;5082774;28;20426;-65
2023/04/11 11:08:53;;;;;;;5.78;2.00;;;14.80;43.20;;;;;;5083836;28;20463;-65
2023/04/11 11:11:21;;;;;;;2.65;1.50;;;15.00;40.70;;;;;;5083528;28;20581;-65
2023/04/11 11:13:50;;;;;;;5.30;1.90;;;14.90;40.30;;;;;;5084504;28;20488;-65
2023/04/11 11:16:18;;;;;;;4.63;1.77;;;14.80;40.30;;;;;;5088379;28;20500;-65
2023/04/11 11:18:47;;;;;;;6.50;2.17;;;14.90;40.80;;;;;;5097474;28;20429;-66
2023/04/11 11:21:15;;;;;;;5.57;1.60;;;15.10;40.40;;;;;;5088668;28;20832;-66
2023/04/11 11:23:54;;;;;;;4.22;1.50;;;15.00;40.60;;;;;;5085301;28;20714;-66
2023/04/11 11:26:23;;;;;;;6.40;1.60;;;15.20;40.70;;;;;;5088828;28;20414;-65
2023/04/11 11:28:50;;;;;;;4.07;1.67;;;15.10;40.60;;;;;;5088929;28;20542;-66
2023/04/11 11:31:17;;;;;;;4.50;1.55;;;14.90;39.40;;;;;;5087529;28;20429;-65
2023/04/11 11:33:43;;;;;;;4.90;1.50;;;15.00;39.40;;;;;;5085464;28;20433;-65
2023/04/11 11:36:11;;;;;;;3.83;1.50;;;15.00;38.60;;;;;;5087617;28;20441;-65
2023/04/11 11:38:38;;;;;;;2.93;1.33;;;15.00;39.00;;;;;;5088087;28;20441;-66
2023/04/11 11:41:05;;;;;;;3.40;1.35;;;15.20;38.00;;;;;;5088364;28;20417;-66
2023/04/11 11:43:37;;;;;;;3.35;1.50;;;15.40;37.80;;;;;;5087272;28;20801;-66
2023/04/11 11:46:09;;;;;;;3.13;1.70;;;15.40;38.40;;;;;;5078055;28;20534;-66
2023/04/11 11:48:36;;;;;;;4.13;1.63;;;15.50;39.10;;;;;;5088443;28;20410;-66
2023/04/11 11:51:03;;;;;;;4.47;1.40;;;15.60;37.90;;;;;;5087964;28;20432;-65
2023/04/11 11:53:30;;;;;;;3.20;1.67;;;15.40;37.50;;;;;;5088406;28;20406;-66
2023/04/11 11:55:57;;;;;;;3.15;1.40;;;15.20;38.50;;;;;;5088191;28;20422;-66
2023/04/11 11:58:23;;;;;;;5.55;1.90;;;15.20;38.70;;;;;;5086665;28;20426;-65
2023/04/11 12:00:52;;;;;;;5.00;1.60;;;15.20;39.00;;;;;;5081854;28;20437;-65
2023/04/11 12:03:23;;;;;;;3.47;1.50;;;15.50;38.40;;;;;;5087203;28;20426;-66
2023/04/11 12:05:51;;;;;;;4.40;1.30;;;15.60;37.50;;;;;;5087224;28;20413;-65
2023/04/11 12:08:19;;;;;;;4.38;1.48;;;15.20;38.00;;;;;;5088029;28;20470;-67
2023/04/11 12:10:47;;;;;;;4.60;1.58;;;15.00;38.50;;;;;;5087980;28;20410;-67
2023/04/11 12:13:15;;;;;;;4.45;1.50;;;15.10;39.50;;;;;;5117326;22;20430;-69
2023/04/11 12:15:45;;;;;;;4.25;1.40;;;15.40;38.70;;;;;;5114088;28;20431;-72
2023/04/11 12:18:14;;;;;;;3.80;1.40;;;15.90;37.60;;;;;;5110975;28;20404;-71
2023/04/11 12:20:40;;;;;;;4.32;1.70;;;16.20;35.70;;;;;;5114855;28;20412;-71
2023/04/11 12:23:07;;;;;;;3.15;1.50;;;16.20;36.30;;;;;;5101718;28;20434;-71
2023/04/11 12:25:34;;;;;;;3.33;1.40;;;16.20;36.60;;;;;;5093981;28;20448;-71
2023/04/11 12:28:01;;;;;;;3.83;1.20;;;16.50;36.00;;;;;;5095907;28;20414;-72
2023/04/11 12:30:28;;;;;;;2.63;1.03;;;16.70;35.10;;;;;;5089855;28;20426;-71
2023/04/11 12:32:55;;;;;;;5.20;1.40;;;16.90;35.70;;;;;;5097842;28;20759;-71
2023/04/11 12:35:23;;;;;;;3.47;1.30;;;17.10;35.40;;;;;;5093451;28;20430;-69
2023/04/11 12:37:50;;;;;;;3.17;1.35;;;16.90;34.10;;;;;;5093444;28;20449;-72
2023/04/11 12:40:17;;;;;;;3.92;1.50;;;16.60;34.20;;;;;;5095167;28;20430;-71
2023/04/11 12:42:47;;;;;;;3.38;1.40;;;16.40;34.30;;;;;;5093454;28;20966;-72
2023/04/11 12:45:15;;;;;;;2.90;1.30;;;16.40;33.60;;;;;;5089649;28;20422;-70
2023/04/11 12:47:42;;;;;;;4.45;1.60;;;16.50;34.20;;;;;;5093723;28;20436;-71
2023/04/11 12:50:10;;;;;;;4.15;1.60;;;16.40;34.90;;;;;;5096752;28;20780;-71
2023/04/11 12:52:38;;;;;;;3.35;1.20;;;16.40;36.10;;;;;;5094326;28;20791;-71
2023/04/11 12:55:07;;;;;;;4.60;1.70;;;16.60;35.90;;;;;;5093987;28;20414;-72